Decoded Metar for SBEG (MANAUS in BRAZIL) (IATA:MAO) | Meteo·Mobile Aviation Weather
aviador You're here:

SBEG Decoded Metar

MANAUS in BRAZIL
Report Time2019-03-21 22:00:00
UTC Time2019-03-21 21:57:39
Flight Rules vfr VFR
Wind190° at 04 kt
W.Decomp.*RWY 28: 0.9 kt HW 3.9 kt LCW
W.Rank190° ranks 21
Current wind is below 190° avg. (4.2)
Visibility9999 m
Phenomena:thunderstorm
Clouds:Few 008 Hf
Few CB 025 Hf
Broken 070 Hf
Expected CloudBase > 800 ft AGL from Temp-Dew spread
Ceiling7,000 ft
Temp24°C (ISA +9)
Dew Point22°C (89% RH)
QNH1010 hPa
Density Alt1,503 ft
Elevation7 ft
Report Wrong Elevation
Raw Report
METAR SBEG 212200Z 19004KT 9999 TS FEW008 FEW025CB BKN070 24/22 Q1010
=

Extra information for SBEG:More info

Metar Taf Metar & Taf Last 4 Metars F.Rules Stats Wind Profile Meteogram Temp Stats Airport Information Weather charts Add Link Nearby VenuesMetar ALERT Operation Metar Decoded Social comments